sensor_id;sensor_type;location;lat;lon;timestamp;P1;durP1;ratioP1;P2;durP2;ratioP2
54408;SDS011;40315;48.620;9.828;2022-11-15T00:00:24;5.05;;;4.28;;
54408;SDS011;40315;48.620;9.828;2022-11-15T00:03:09;7.85;;;4.88;;
54408;SDS011;40315;48.620;9.828;2022-11-15T00:06:00;8.68;;;4.80;;
54408;SDS011;40315;48.620;9.828;2022-11-15T00:08:47;7.05;;;4.50;;
54408;SDS011;40315;48.620;9.828;2022-11-15T00:11:32;7.03;;;4.97;;
54408;SDS011;40315;48.620;9.828;2022-11-15T00:14:18;9.63;;;5.18;;
54408;SDS011;40315;48.620;9.828;2022-11-15T00:17:05;6.35;;;4.95;;
54408;SDS011;40315;48.620;9.828;2022-11-15T00:19:50;5.68;;;4.45;;
54408;SDS011;40315;48.620;9.828;2022-11-15T00:22:36;6.18;;;4.10;;
54408;SDS011;40315;48.620;9.828;2022-11-15T00:25:21;7.05;;;4.20;;
54408;SDS011;40315;48.620;9.828;2022-11-15T00:28:07;4.72;;;3.67;;
54408;SDS011;40315;48.620;9.828;2022-11-15T00:30:52;5.97;;;3.63;;
54408;SDS011;40315;48.620;9.828;2022-11-15T00:33:40;4.93;;;3.40;;
54408;SDS011;40315;48.620;9.828;2022-11-15T00:36:28;6.22;;;3.65;;
54408;SDS011;40315;48.620;9.828;2022-11-15T00:39:17;6.78;;;4.07;;
54408;SDS011;40315;48.620;9.828;2022-11-15T00:42:03;7.00;;;5.00;;
54408;SDS011;40315;48.620;9.828;2022-11-15T00:44:48;6.63;;;4.65;;
54408;SDS011;40315;48.620;9.828;2022-11-15T00:47:34;8.30;;;5.07;;
54408;SDS011;40315;48.620;9.828;2022-11-15T00:50:20;9.38;;;5.65;;
54408;SDS011;40315;48.620;9.828;2022-11-15T00:53:06;8.00;;;4.65;;
54408;SDS011;40315;48.620;9.828;2022-11-15T00:55:53;7.95;;;4.95;;
54408;SDS011;40315;48.620;9.828;2022-11-15T00:58:38;7.65;;;4.78;;
54408;SDS011;40315;48.620;9.828;2022-11-15T01:01:24;6.07;;;4.50;;
54408;SDS011;40315;48.620;9.828;2022-11-15T01:04:09;7.13;;;4.72;;
54408;SDS011;40315;48.620;9.828;2022-11-15T01:06:56;5.80;;;4.30;;
54408;SDS011;40315;48.620;9.828;2022-11-15T01:09:42;7.07;;;4.78;;
54408;SDS011;40315;48.620;9.828;2022-11-15T01:12:27;7.18;;;4.40;;
54408;SDS011;40315;48.620;9.828;2022-11-15T01:15:13;7.07;;;4.38;;
54408;SDS011;40315;48.620;9.828;2022-11-15T01:17:58;5.55;;;4.45;;
54408;SDS011;40315;48.620;9.828;2022-11-15T01:20:44;7.65;;;4.10;;
54408;SDS011;40315;48.620;9.828;2022-11-15T01:23:31;7.43;;;5.00;;
54408;SDS011;40315;48.620;9.828;2022-11-15T01:26:17;7.65;;;4.50;;
54408;SDS011;40315;48.620;9.828;2022-11-15T01:29:03;6.38;;;5.00;;
54408;SDS011;40315;48.620;9.828;2022-11-15T01:31:48;9.50;;;4.35;;
54408;SDS011;40315;48.620;9.828;2022-11-15T01:34:34;6.80;;;4.05;;
54408;SDS011;40315;48.620;9.828;2022-11-15T01:37:19;8.13;;;4.13;;
54408;SDS011;40315;48.620;9.828;2022-11-15T01:40:07;5.15;;;4.07;;
54408;SDS011;40315;48.620;9.828;2022-11-15T01:46:26;4.70;;;3.58;;
54408;SDS011;40315;48.620;9.828;2022-11-15T01:49:16;6.53;;;3.90;;
54408;SDS011;40315;48.620;9.828;2022-11-15T01:52:04;5.68;;;4.10;;
54408;SDS011;40315;48.620;9.828;2022-11-15T01:54:55;4.95;;;3.92;;
54408;SDS011;40315;48.620;9.828;2022-11-15T01:57:46;6.38;;;4.38;;
54408;SDS011;40315;48.620;9.828;2022-11-15T02:03:20;6.97;;;4.05;;
54408;SDS011;40315;48.620;9.828;2022-11-15T02:06:11;8.00;;;4.55;;
54408;SDS011;40315;48.620;9.828;2022-11-15T02:08:56;4.35;;;3.75;;
54408;SDS011;40315;48.620;9.828;2022-11-15T02:11:42;5.60;;;3.78;;
54408;SDS011;40315;48.620;9.828;2022-11-15T02:14:32;5.63;;;3.90;;
54408;SDS011;40315;48.620;9.828;2022-11-15T02:17:23;5.25;;;4.00;;
54408;SDS011;40315;48.620;9.828;2022-11-15T02:20:25;6.15;;;4.00;;
54408;SDS011;40315;48.620;9.828;2022-11-15T02:30:00;6.63;;;4.32;;
54408;SDS011;40315;48.620;9.828;2022-11-15T02:32:54;6.78;;;3.58;;
54408;SDS011;40315;48.620;9.828;2022-11-15T02:35:43;5.95;;;3.80;;
54408;SDS011;40315;48.620;9.828;2022-11-15T02:38:34;6.25;;;4.30;;
54408;SDS011;40315;48.620;9.828;2022-11-15T02:41:30;5.95;;;4.10;;
54408;SDS011;40315;48.620;9.828;2022-11-15T02:44:21;6.15;;;4.15;;
54408;SDS011;40315;48.620;9.828;2022-11-15T02:47:11;6.20;;;3.80;;
54408;SDS011;40315;48.620;9.828;2022-11-15T02:50:02;6.57;;;3.72;;
54408;SDS011;40315;48.620;9.828;2022-11-15T02:52:52;5.80;;;3.95;;
54408;SDS011;40315;48.620;9.828;2022-11-15T02:55:38;5.90;;;4.25;;
54408;SDS011;40315;48.620;9.828;2022-11-15T02:58:31;6.43;;;4.65;;
54408;SDS011;40315;48.620;9.828;2022-11-15T03:01:35;7.07;;;4.25;;
54408;SDS011;40315;48.620;9.828;2022-11-15T03:04:28;7.47;;;4.78;;
54408;SDS011;40315;48.620;9.828;2022-11-15T03:07:25;8.20;;;5.30;;
54408;SDS011;40315;48.620;9.828;2022-11-15T03:10:16;10.88;;;5.63;;
54408;SDS011;40315;48.620;9.828;2022-11-15T03:13:08;8.80;;;5.55;;
54408;SDS011;40315;48.620;9.828;2022-11-15T03:16:02;8.07;;;4.82;;
54408;SDS011;40315;48.620;9.828;2022-11-15T03:18:51;5.80;;;4.88;;
54408;SDS011;40315;48.620;9.828;2022-11-15T03:21:42;7.28;;;4.63;;
54408;SDS011;40315;48.620;9.828;2022-11-15T03:24:30;7.93;;;5.25;;
54408;SDS011;40315;48.620;9.828;2022-11-15T03:27:19;6.97;;;4.45;;
54408;SDS011;40315;48.620;9.828;2022-11-15T03:30:09;7.97;;;4.80;;
54408;SDS011;40315;48.620;9.828;2022-11-15T03:32:56;7.60;;;4.63;;
54408;SDS011;40315;48.620;9.828;2022-11-15T03:35:44;6.32;;;4.22;;
54408;SDS011;40315;48.620;9.828;2022-11-15T03:38:30;6.05;;;4.28;;
54408;SDS011;40315;48.620;9.828;2022-11-15T03:41:21;6.28;;;4.15;;
54408;SDS011;40315;48.620;9.828;2022-11-15T03:44:11;7.20;;;4.43;;
54408;SDS011;40315;48.620;9.828;2022-11-15T03:47:01;6.35;;;4.15;;
54408;SDS011;40315;48.620;9.828;2022-11-15T03:49:52;5.55;;;4.20;;
54408;SDS011;40315;48.620;9.828;2022-11-15T03:52:42;5.55;;;4.43;;
54408;SDS011;40315;48.620;9.828;2022-11-15T03:55:31;6.15;;;4.40;;
54408;SDS011;40315;48.620;9.828;2022-11-15T03:58:18;7.80;;;4.28;;
54408;SDS011;40315;48.620;9.828;2022-11-15T04:01:04;4.72;;;4.20;;
54408;SDS011;40315;48.620;9.828;2022-11-15T04:03:49;7.47;;;4.35;;
54408;SDS011;40315;48.620;9.828;2022-11-15T04:06:35;6.30;;;4.72;;
54408;SDS011;40315;48.620;9.828;2022-11-15T04:09:20;6.93;;;4.88;;
54408;SDS011;40315;48.620;9.828;2022-11-15T04:12:06;7.72;;;5.05;;
54408;SDS011;40315;48.620;9.828;2022-11-15T04:14:53;7.38;;;5.28;;
54408;SDS011;40315;48.620;9.828;2022-11-15T04:17:52;7.57;;;5.18;;
54408;SDS011;40315;48.620;9.828;2022-11-15T04:20:38;6.25;;;4.63;;
54408;SDS011;40315;48.620;9.828;2022-11-15T04:23:37;8.98;;;4.93;;
54408;SDS011;40315;48.620;9.828;2022-11-15T04:26:41;6.25;;;4.65;;
54408;SDS011;40315;48.620;9.828;2022-11-15T04:29:27;6.03;;;5.00;;
54408;SDS011;40315;48.620;9.828;2022-11-15T04:32:22;7.53;;;6.05;;
54408;SDS011;40315;48.620;9.828;2022-11-15T04:35:08;7.18;;;5.65;;
54408;SDS011;40315;48.620;9.828;2022-11-15T04:37:54;8.52;;;6.03;;
54408;SDS011;40315;48.620;9.828;2022-11-15T04:40:38;7.72;;;5.45;;
54408;SDS011;40315;48.620;9.828;2022-11-15T04:43:24;12.02;;;6.88;;
54408;SDS011;40315;48.620;9.828;2022-11-15T04:46:09;8.00;;;6.10;;
54408;SDS011;40315;48.620;9.828;2022-11-15T04:48:56;7.70;;;6.38;;
54408;SDS011;40315;48.620;9.828;2022-11-15T04:51:42;9.40;;;6.78;;
54408;SDS011;40315;48.620;9.828;2022-11-15T04:54:28;9.30;;;6.97;;
54408;SDS011;40315;48.620;9.828;2022-11-15T04:57:13;10.20;;;7.28;;
54408;SDS011;40315;48.620;9.828;2022-11-15T04:59:59;11.48;;;7.97;;
54408;SDS011;40315;48.620;9.828;2022-11-15T05:02:44;12.50;;;7.38;;
54408;SDS011;40315;48.620;9.828;2022-11-15T05:05:49;12.95;;;8.05;;
54408;SDS011;40315;48.620;9.828;2022-11-15T05:08:34;12.10;;;8.63;;
54408;SDS011;40315;48.620;9.828;2022-11-15T05:11:20;11.45;;;7.93;;
54408;SDS011;40315;48.620;9.828;2022-11-15T05:14:05;13.85;;;8.57;;
54408;SDS011;40315;48.620;9.828;2022-11-15T05:16:51;13.35;;;9.23;;
54408;SDS011;40315;48.620;9.828;2022-11-15T05:19:37;13.77;;;9.45;;
54408;SDS011;40315;48.620;9.828;2022-11-15T05:22:23;15.15;;;9.77;;
54408;SDS011;40315;48.620;9.828;2022-11-15T05:25:09;13.38;;;9.32;;
54408;SDS011;40315;48.620;9.828;2022-11-15T05:27:55;12.85;;;8.38;;
54408;SDS011;40315;48.620;9.828;2022-11-15T05:30:40;12.65;;;9.18;;
54408;SDS011;40315;48.620;9.828;2022-11-15T05:33:26;11.95;;;8.50;;
54408;SDS011;40315;48.620;9.828;2022-11-15T05:36:13;12.60;;;8.30;;
54408;SDS011;40315;48.620;9.828;2022-11-15T05:39:04;11.63;;;8.25;;
54408;SDS011;40315;48.620;9.828;2022-11-15T05:41:52;10.63;;;8.10;;
54408;SDS011;40315;48.620;9.828;2022-11-15T05:44:42;10.95;;;8.15;;
54408;SDS011;40315;48.620;9.828;2022-11-15T05:47:32;14.57;;;8.15;;
54408;SDS011;40315;48.620;9.828;2022-11-15T05:50:20;13.90;;;8.55;;
54408;SDS011;40315;48.620;9.828;2022-11-15T05:53:06;11.40;;;8.35;;
54408;SDS011;40315;48.620;9.828;2022-11-15T05:55:53;12.10;;;8.90;;
54408;SDS011;40315;48.620;9.828;2022-11-15T05:58:38;11.85;;;8.55;;
54408;SDS011;40315;48.620;9.828;2022-11-15T06:01:24;10.65;;;8.15;;
54408;SDS011;40315;48.620;9.828;2022-11-15T06:04:10;10.48;;;8.70;;
54408;SDS011;40315;48.620;9.828;2022-11-15T06:06:57;12.98;;;9.35;;
54408;SDS011;40315;48.620;9.828;2022-11-15T06:09:43;12.73;;;8.90;;
54408;SDS011;40315;48.620;9.828;2022-11-15T06:12:30;14.30;;;9.32;;
54408;SDS011;40315;48.620;9.828;2022-11-15T06:15:15;15.55;;;8.88;;
54408;SDS011;40315;48.620;9.828;2022-11-15T06:18:01;13.18;;;9.45;;
54408;SDS011;40315;48.620;9.828;2022-11-15T06:20:46;14.65;;;9.10;;
54408;SDS011;40315;48.620;9.828;2022-11-15T06:23:33;14.57;;;9.50;;
54408;SDS011;40315;48.620;9.828;2022-11-15T06:26:19;13.07;;;9.35;;
54408;SDS011;40315;48.620;9.828;2022-11-15T06:29:06;12.35;;;9.52;;
54408;SDS011;40315;48.620;9.828;2022-11-15T06:31:51;13.75;;;9.32;;
54408;SDS011;40315;48.620;9.828;2022-11-15T06:34:37;12.27;;;8.98;;
54408;SDS011;40315;48.620;9.828;2022-11-15T06:37:23;12.80;;;8.20;;
54408;SDS011;40315;48.620;9.828;2022-11-15T06:40:09;11.02;;;8.20;;
54408;SDS011;40315;48.620;9.828;2022-11-15T06:42:58;12.00;;;8.35;;
54408;SDS011;40315;48.620;9.828;2022-11-15T06:45:45;13.30;;;8.85;;
54408;SDS011;40315;48.620;9.828;2022-11-15T06:48:31;12.30;;;8.85;;
54408;SDS011;40315;48.620;9.828;2022-11-15T06:51:18;13.48;;;9.55;;
54408;SDS011;40315;48.620;9.828;2022-11-15T06:54:04;14.00;;;9.57;;
54408;SDS011;40315;48.620;9.828;2022-11-15T06:56:50;14.20;;;10.10;;
54408;SDS011;40315;48.620;9.828;2022-11-15T06:59:35;12.25;;;8.70;;
54408;SDS011;40315;48.620;9.828;2022-11-15T07:02:22;11.43;;;8.68;;
54408;SDS011;40315;48.620;9.828;2022-11-15T07:05:07;10.95;;;7.72;;
54408;SDS011;40315;48.620;9.828;2022-11-15T07:07:54;11.82;;;7.97;;
54408;SDS011;40315;48.620;9.828;2022-11-15T07:10:40;10.32;;;7.70;;
54408;SDS011;40315;48.620;9.828;2022-11-15T07:13:26;12.75;;;8.25;;
54408;SDS011;40315;48.620;9.828;2022-11-15T07:16:13;13.32;;;8.32;;
54408;SDS011;40315;48.620;9.828;2022-11-15T07:19:00;10.95;;;8.02;;
54408;SDS011;40315;48.620;9.828;2022-11-15T07:21:45;10.60;;;8.48;;
54408;SDS011;40315;48.620;9.828;2022-11-15T07:24:31;13.65;;;9.13;;
54408;SDS011;40315;48.620;9.828;2022-11-15T07:27:17;11.98;;;8.65;;
54408;SDS011;40315;48.620;9.828;2022-11-15T07:30:03;14.13;;;8.70;;
54408;SDS011;40315;48.620;9.828;2022-11-15T07:32:51;15.85;;;8.75;;
54408;SDS011;40315;48.620;9.828;2022-11-15T07:35:39;12.32;;;8.57;;
54408;SDS011;40315;48.620;9.828;2022-11-15T07:38:26;13.80;;;9.20;;
54408;SDS011;40315;48.620;9.828;2022-11-15T07:41:11;13.18;;;9.13;;
54408;SDS011;40315;48.620;9.828;2022-11-15T07:43:57;12.82;;;8.77;;
54408;SDS011;40315;48.620;9.828;2022-11-15T07:46:42;12.98;;;9.23;;
54408;SDS011;40315;48.620;9.828;2022-11-15T07:49:28;12.75;;;9.18;;
54408;SDS011;40315;48.620;9.828;2022-11-15T07:52:15;12.90;;;9.25;;
54408;SDS011;40315;48.620;9.828;2022-11-15T07:55:00;16.02;;;9.50;;
54408;SDS011;40315;48.620;9.828;2022-11-15T07:57:46;13.50;;;10.07;;
54408;SDS011;40315;48.620;9.828;2022-11-15T08:00:31;15.15;;;9.90;;
54408;SDS011;40315;48.620;9.828;2022-11-15T08:03:18;16.00;;;9.40;;
54408;SDS011;40315;48.620;9.828;2022-11-15T08:06:04;15.02;;;9.75;;
54408;SDS011;40315;48.620;9.828;2022-11-15T08:08:51;14.48;;;10.48;;
54408;SDS011;40315;48.620;9.828;2022-11-15T08:11:36;14.73;;;9.82;;
54408;SDS011;40315;48.620;9.828;2022-11-15T08:14:22;15.57;;;10.30;;
54408;SDS011;40315;48.620;9.828;2022-11-15T08:17:10;16.25;;;9.90;;
54408;SDS011;40315;48.620;9.828;2022-11-15T08:19:55;8.43;;;7.00;;
54408;SDS011;40315;48.620;9.828;2022-11-15T08:22:41;9.45;;;6.55;;
54408;SDS011;40315;48.620;9.828;2022-11-15T08:25:28;9.77;;;6.95;;
54408;SDS011;40315;48.620;9.828;2022-11-15T08:28:15;9.63;;;6.88;;
54408;SDS011;40315;48.620;9.828;2022-11-15T08:31:02;10.18;;;7.30;;
54408;SDS011;40315;48.620;9.828;2022-11-15T08:33:48;10.57;;;6.95;;
54408;SDS011;40315;48.620;9.828;2022-11-15T08:36:34;10.57;;;7.72;;
54408;SDS011;40315;48.620;9.828;2022-11-15T08:39:20;15.13;;;10.45;;
54408;SDS011;40315;48.620;9.828;2022-11-15T08:42:07;13.40;;;8.85;;
54408;SDS011;40315;48.620;9.828;2022-11-15T08:44:52;13.23;;;9.32;;
54408;SDS011;40315;48.620;9.828;2022-11-15T08:47:38;14.88;;;9.20;;
54408;SDS011;40315;48.620;9.828;2022-11-15T08:50:23;16.33;;;11.20;;
54408;SDS011;40315;48.620;9.828;2022-11-15T08:53:09;15.38;;;10.35;;
54408;SDS011;40315;48.620;9.828;2022-11-15T08:55:55;16.70;;;10.48;;
54408;SDS011;40315;48.620;9.828;2022-11-15T08:58:42;17.17;;;10.57;;
54408;SDS011;40315;48.620;9.828;2022-11-15T09:01:27;14.43;;;10.52;;
54408;SDS011;40315;48.620;9.828;2022-11-15T09:04:13;14.80;;;10.32;;
54408;SDS011;40315;48.620;9.828;2022-11-15T09:06:58;13.43;;;9.75;;
54408;SDS011;40315;48.620;9.828;2022-11-15T09:09:44;15.48;;;8.13;;
54408;SDS011;40315;48.620;9.828;2022-11-15T09:12:29;9.82;;;7.70;;
54408;SDS011;40315;48.620;9.828;2022-11-15T09:15:16;10.68;;;8.57;;
54408;SDS011;40315;48.620;9.828;2022-11-15T09:18:03;13.88;;;8.93;;
54408;SDS011;40315;48.620;9.828;2022-11-15T09:20:48;10.90;;;8.05;;
54408;SDS011;40315;48.620;9.828;2022-11-15T09:23:34;13.93;;;7.82;;
54408;SDS011;40315;48.620;9.828;2022-11-15T09:26:19;10.77;;;7.55;;
54408;SDS011;40315;48.620;9.828;2022-11-15T09:29:05;10.55;;;6.97;;
54408;SDS011;40315;48.620;9.828;2022-11-15T09:31:52;7.40;;;5.25;;
54408;SDS011;40315;48.620;9.828;2022-11-15T09:34:38;6.13;;;4.10;;
54408;SDS011;40315;48.620;9.828;2022-11-15T09:37:23;5.28;;;4.32;;
54408;SDS011;40315;48.620;9.828;2022-11-15T09:40:10;10.70;;;7.22;;
54408;SDS011;40315;48.620;9.828;2022-11-15T09:43:03;8.57;;;6.88;;
54408;SDS011;40315;48.620;9.828;2022-11-15T09:45:57;8.05;;;6.45;;
54408;SDS011;40315;48.620;9.828;2022-11-15T09:48:51;6.88;;;5.80;;
54408;SDS011;40315;48.620;9.828;2022-11-15T09:51:28;8.20;;;5.30;;
54408;SDS011;40315;48.620;9.828;2022-11-15T09:54:00;6.20;;;5.45;;
54408;SDS011;40315;48.620;9.828;2022-11-15T09:56:36;5.28;;;4.47;;
54408;SDS011;40315;48.620;9.828;2022-11-15T09:59:19;5.00;;;4.30;;
54408;SDS011;40315;48.620;9.828;2022-11-15T10:01:59;6.88;;;5.03;;
54408;SDS011;40315;48.620;9.828;2022-11-15T10:04:42;6.10;;;4.72;;
54408;SDS011;40315;48.620;9.828;2022-11-15T10:07:13;6.97;;;4.70;;
54408;SDS011;40315;48.620;9.828;2022-11-15T10:09:45;5.97;;;4.60;;
54408;SDS011;40315;48.620;9.828;2022-11-15T10:12:17;7.63;;;5.07;;
54408;SDS011;40315;48.620;9.828;2022-11-15T10:14:47;5.60;;;4.93;;
54408;SDS011;40315;48.620;9.828;2022-11-15T10:17:24;6.28;;;4.70;;
54408;SDS011;40315;48.620;9.828;2022-11-15T10:20:12;5.25;;;4.60;;
54408;SDS011;40315;48.620;9.828;2022-11-15T10:22:47;5.13;;;4.60;;
54408;SDS011;40315;48.620;9.828;2022-11-15T10:25:18;6.85;;;5.00;;
54408;SDS011;40315;48.620;9.828;2022-11-15T10:27:50;6.05;;;4.55;;
54408;SDS011;40315;48.620;9.828;2022-11-15T10:30:23;5.47;;;4.00;;
54408;SDS011;40315;48.620;9.828;2022-11-15T10:32:57;4.90;;;4.07;;
54408;SDS011;40315;48.620;9.828;2022-11-15T10:35:26;6.55;;;4.20;;
54408;SDS011;40315;48.620;9.828;2022-11-15T10:38:04;5.00;;;4.13;;
54408;SDS011;40315;48.620;9.828;2022-11-15T10:40:32;4.28;;;3.63;;
54408;SDS011;40315;48.620;9.828;2022-11-15T10:43:04;5.10;;;4.07;;
54408;SDS011;40315;48.620;9.828;2022-11-15T10:45:39;5.93;;;4.25;;
54408;SDS011;40315;48.620;9.828;2022-11-15T10:48:19;6.38;;;3.85;;
54408;SDS011;40315;48.620;9.828;2022-11-15T10:50:50;5.15;;;4.07;;
54408;SDS011;40315;48.620;9.828;2022-11-15T10:53:21;7.13;;;5.50;;
54408;SDS011;40315;48.620;9.828;2022-11-15T10:55:58;5.82;;;4.53;;
54408;SDS011;40315;48.620;9.828;2022-11-15T10:58:31;5.10;;;2.92;;
54408;SDS011;40315;48.620;9.828;2022-11-15T11:01:13;4.93;;;2.97;;
54408;SDS011;40315;48.620;9.828;2022-11-15T11:03:43;4.63;;;3.03;;
54408;SDS011;40315;48.620;9.828;2022-11-15T11:06:13;3.45;;;3.10;;
54408;SDS011;40315;48.620;9.828;2022-11-15T11:08:53;5.22;;;3.80;;
54408;SDS011;40315;48.620;9.828;2022-11-15T11:11:21;5.25;;;4.38;;
54408;SDS011;40315;48.620;9.828;2022-11-15T11:13:48;4.38;;;3.40;;
54408;SDS011;40315;48.620;9.828;2022-11-15T11:16:20;5.32;;;3.97;;
54408;SDS011;40315;48.620;9.828;2022-11-15T11:19:02;3.88;;;3.40;;
54408;SDS011;40315;48.620;9.828;2022-11-15T11:21:39;4.40;;;3.67;;
54408;SDS011;40315;48.620;9.828;2022-11-15T11:24:18;6.07;;;3.63;;
54408;SDS011;40315;48.620;9.828;2022-11-15T11:26:55;4.78;;;3.33;;
54408;SDS011;40315;48.620;9.828;2022-11-15T11:29:42;3.67;;;2.92;;
54408;SDS011;40315;48.620;9.828;2022-11-15T11:32:23;3.90;;;3.10;;
54408;SDS011;40315;48.620;9.828;2022-11-15T11:35:09;4.55;;;3.28;;
54408;SDS011;40315;48.620;9.828;2022-11-15T11:37:43;3.30;;;2.60;;
54408;SDS011;40315;48.620;9.828;2022-11-15T11:40:29;2.88;;;2.38;;
54408;SDS011;40315;48.620;9.828;2022-11-15T11:43:02;3.92;;;2.45;;
54408;SDS011;40315;48.620;9.828;2022-11-15T11:45:44;2.45;;;2.25;;
54408;SDS011;40315;48.620;9.828;2022-11-15T11:48:30;2.55;;;2.10;;
54408;SDS011;40315;48.620;9.828;2022-11-15T11:51:08;2.80;;;2.25;;
54408;SDS011;40315;48.620;9.828;2022-11-15T11:53:47;4.20;;;2.42;;
54408;SDS011;40315;48.620;9.828;2022-11-15T11:56:22;2.42;;;1.95;;
54408;SDS011;40315;48.620;9.828;2022-11-15T11:58:57;2.90;;;2.60;;
54408;SDS011;40315;48.620;9.828;2022-11-15T12:01:32;2.97;;;2.50;;
54408;SDS011;40315;48.620;9.828;2022-11-15T12:04:04;3.72;;;3.35;;
54408;SDS011;40315;48.620;9.828;2022-11-15T12:06:38;5.03;;;3.00;;
54408;SDS011;40315;48.620;9.828;2022-11-15T12:09:13;5.10;;;3.83;;
54408;SDS011;40315;48.620;9.828;2022-11-15T12:11:47;3.60;;;2.85;;
54408;SDS011;40315;48.620;9.828;2022-11-15T12:14:22;4.80;;;3.00;;
54408;SDS011;40315;48.620;9.828;2022-11-15T12:16:53;4.82;;;3.83;;
54408;SDS011;40315;48.620;9.828;2022-11-15T12:19:23;14.40;;;11.57;;
54408;SDS011;40315;48.620;9.828;2022-11-15T12:21:53;6.78;;;4.18;;
54408;SDS011;40315;48.620;9.828;2022-11-15T12:24:28;4.00;;;3.42;;
54408;SDS011;40315;48.620;9.828;2022-11-15T12:27:00;4.78;;;3.30;;
54408;SDS011;40315;48.620;9.828;2022-11-15T12:29:33;5.40;;;3.67;;
54408;SDS011;40315;48.620;9.828;2022-11-15T12:32:04;3.70;;;2.90;;
54408;SDS011;40315;48.620;9.828;2022-11-15T12:34:44;3.72;;;2.67;;
54408;SDS011;40315;48.620;9.828;2022-11-15T12:37:33;4.07;;;3.00;;
54408;SDS011;40315;48.620;9.828;2022-11-15T12:40:28;3.78;;;2.58;;
54408;SDS011;40315;48.620;9.828;2022-11-15T12:43:02;3.35;;;2.53;;
54408;SDS011;40315;48.620;9.828;2022-11-15T12:45:57;2.80;;;2.22;;
54408;SDS011;40315;48.620;9.828;2022-11-15T12:48:46;2.72;;;2.20;;
54408;SDS011;40315;48.620;9.828;2022-11-15T12:51:19;3.75;;;2.50;;
54408;SDS011;40315;48.620;9.828;2022-11-15T12:53:48;2.58;;;2.38;;
54408;SDS011;40315;48.620;9.828;2022-11-15T12:56:23;2.47;;;2.20;;
54408;SDS011;40315;48.620;9.828;2022-11-15T12:58:52;4.78;;;2.38;;
54408;SDS011;40315;48.620;9.828;2022-11-15T13:04:24;3.92;;;2.50;;
54408;SDS011;40315;48.620;9.828;2022-11-15T13:06:53;3.40;;;2.78;;
54408;SDS011;40315;48.620;9.828;2022-11-15T13:15:34;4.13;;;2.60;;
54408;SDS011;40315;48.620;9.828;2022-11-15T13:21:05;3.38;;;2.22;;
54408;SDS011;40315;48.620;9.828;2022-11-15T13:24:03;3.75;;;2.97;;
54408;SDS011;40315;48.620;9.828;2022-11-15T13:26:30;4.00;;;2.90;;
54408;SDS011;40315;48.620;9.828;2022-11-15T13:28:59;4.55;;;3.08;;
54408;SDS011;40315;48.620;9.828;2022-11-15T13:31:28;3.15;;;2.50;;
54408;SDS011;40315;48.620;9.828;2022-11-15T13:34:14;4.60;;;2.38;;
54408;SDS011;40315;48.620;9.828;2022-11-15T13:36:50;5.40;;;2.28;;
54408;SDS011;40315;48.620;9.828;2022-11-15T13:39:25;3.13;;;2.53;;
54408;SDS011;40315;48.620;9.828;2022-11-15T13:41:56;4.28;;;2.58;;
54408;SDS011;40315;48.620;9.828;2022-11-15T13:44:25;3.70;;;2.28;;
54408;SDS011;40315;48.620;9.828;2022-11-15T13:49:40;4.18;;;2.35;;
54408;SDS011;40315;48.620;9.828;2022-11-15T13:52:07;3.58;;;2.40;;
54408;SDS011;40315;48.620;9.828;2022-11-15T13:54:40;3.28;;;2.10;;
54408;SDS011;40315;48.620;9.828;2022-11-15T13:57:10;2.50;;;2.30;;
54408;SDS011;40315;48.620;9.828;2022-11-15T13:59:45;2.10;;;1.85;;
54408;SDS011;40315;48.620;9.828;2022-11-15T14:02:15;3.03;;;2.15;;
54408;SDS011;40315;48.620;9.828;2022-11-15T14:04:45;3.00;;;2.00;;
54408;SDS011;40315;48.620;9.828;2022-11-15T14:07:16;2.28;;;2.08;;
54408;SDS011;40315;48.620;9.828;2022-11-15T14:09:45;2.92;;;2.30;;
54408;SDS011;40315;48.620;9.828;2022-11-15T14:15:00;3.10;;;2.50;;
54408;SDS011;40315;48.620;9.828;2022-11-15T14:17:49;3.28;;;2.17;;
54408;SDS011;40315;48.620;9.828;2022-11-15T14:20:24;4.07;;;2.70;;
54408;SDS011;40315;48.620;9.828;2022-11-15T14:22:57;4.07;;;2.63;;
54408;SDS011;40315;48.620;9.828;2022-11-15T14:25:26;6.93;;;4.55;;
54408;SDS011;40315;48.620;9.828;2022-11-15T14:28:10;8.15;;;4.97;;
54408;SDS011;40315;48.620;9.828;2022-11-15T14:30:43;8.90;;;5.18;;
54408;SDS011;40315;48.620;9.828;2022-11-15T14:33:20;7.45;;;6.15;;
54408;SDS011;40315;48.620;9.828;2022-11-15T14:35:49;4.30;;;3.42;;
54408;SDS011;40315;48.620;9.828;2022-11-15T14:38:16;3.55;;;2.65;;
54408;SDS011;40315;48.620;9.828;2022-11-15T14:40:43;4.15;;;2.95;;
54408;SDS011;40315;48.620;9.828;2022-11-15T14:43:13;3.97;;;2.83;;
54408;SDS011;40315;48.620;9.828;2022-11-15T14:45:40;3.03;;;2.72;;
54408;SDS011;40315;48.620;9.828;2022-11-15T14:48:09;4.18;;;2.70;;
54408;SDS011;40315;48.620;9.828;2022-11-15T14:50:38;3.42;;;2.95;;
54408;SDS011;40315;48.620;9.828;2022-11-15T14:53:05;4.75;;;2.97;;
54408;SDS011;40315;48.620;9.828;2022-11-15T14:55:33;5.57;;;3.20;;
54408;SDS011;40315;48.620;9.828;2022-11-15T14:58:01;6.22;;;3.38;;
54408;SDS011;40315;48.620;9.828;2022-11-15T15:00:33;7.38;;;4.50;;
54408;SDS011;40315;48.620;9.828;2022-11-15T15:03:02;6.80;;;4.18;;
54408;SDS011;40315;48.620;9.828;2022-11-15T15:05:32;7.05;;;4.90;;
54408;SDS011;40315;48.620;9.828;2022-11-15T15:08:02;7.68;;;5.45;;
54408;SDS011;40315;48.620;9.828;2022-11-15T15:10:31;8.98;;;6.32;;
54408;SDS011;40315;48.620;9.828;2022-11-15T15:12:59;10.73;;;7.10;;
54408;SDS011;40315;48.620;9.828;2022-11-15T15:15:29;12.13;;;8.20;;
54408;SDS011;40315;48.620;9.828;2022-11-15T15:17:59;10.70;;;8.30;;
54408;SDS011;40315;48.620;9.828;2022-11-15T15:20:27;11.38;;;9.32;;
54408;SDS011;40315;48.620;9.828;2022-11-15T15:22:55;11.65;;;8.65;;
54408;SDS011;40315;48.620;9.828;2022-11-15T15:25:23;14.63;;;8.75;;
54408;SDS011;40315;48.620;9.828;2022-11-15T15:27:53;12.07;;;9.05;;
54408;SDS011;40315;48.620;9.828;2022-11-15T15:30:21;14.55;;;10.30;;
54408;SDS011;40315;48.620;9.828;2022-11-15T15:32:48;16.67;;;10.20;;
54408;SDS011;40315;48.620;9.828;2022-11-15T15:35:16;10.82;;;8.90;;
54408;SDS011;40315;48.620;9.828;2022-11-15T15:37:48;15.15;;;10.13;;
54408;SDS011;40315;48.620;9.828;2022-11-15T15:40:18;14.93;;;11.73;;
54408;SDS011;40315;48.620;9.828;2022-11-15T15:42:46;16.40;;;13.45;;
54408;SDS011;40315;48.620;9.828;2022-11-15T15:45:13;16.98;;;11.85;;
54408;SDS011;40315;48.620;9.828;2022-11-15T15:47:41;13.93;;;10.07;;
54408;SDS011;40315;48.620;9.828;2022-11-15T15:50:12;14.80;;;10.65;;
54408;SDS011;40315;48.620;9.828;2022-11-15T15:52:48;14.70;;;11.50;;
54408;SDS011;40315;48.620;9.828;2022-11-15T15:55:16;14.55;;;12.48;;
54408;SDS011;40315;48.620;9.828;2022-11-15T15:57:46;16.08;;;10.88;;
54408;SDS011;40315;48.620;9.828;2022-11-15T16:00:16;16.52;;;11.88;;
54408;SDS011;40315;48.620;9.828;2022-11-15T16:02:44;17.17;;;11.73;;
54408;SDS011;40315;48.620;9.828;2022-11-15T16:05:11;13.82;;;10.30;;
54408;SDS011;40315;48.620;9.828;2022-11-15T16:07:39;15.30;;;11.43;;
54408;SDS011;40315;48.620;9.828;2022-11-15T16:10:18;14.13;;;9.85;;
54408;SDS011;40315;48.620;9.828;2022-11-15T16:12:47;16.85;;;10.52;;
54408;SDS011;40315;48.620;9.828;2022-11-15T16:15:14;14.35;;;11.32;;
54408;SDS011;40315;48.620;9.828;2022-11-15T16:17:43;15.95;;;11.85;;
54408;SDS011;40315;48.620;9.828;2022-11-15T16:20:19;16.58;;;11.57;;
54408;SDS011;40315;48.620;9.828;2022-11-15T16:22:50;14.68;;;11.02;;
54408;SDS011;40315;48.620;9.828;2022-11-15T16:25:18;16.70;;;10.95;;
54408;SDS011;40315;48.620;9.828;2022-11-15T16:27:45;17.02;;;9.70;;
54408;SDS011;40315;48.620;9.828;2022-11-15T16:30:13;14.25;;;9.48;;
54408;SDS011;40315;48.620;9.828;2022-11-15T16:32:41;17.33;;;10.40;;
54408;SDS011;40315;48.620;9.828;2022-11-15T16:35:11;12.23;;;9.35;;